Time;durP1;ratioP1;P1;durP2;ratioP2;P2;SDS_P1;SDS_P2;PMS_P1;PMS_P2;Temp;Humidity;BMP_temperature;BMP_pressure;BME280_temperature;BME280_humidity;BME280_pressure;Samples;Min_cycle;Max_cycle;Signal;HPM_P1;HPM_P2
2022/10/13 00:09:22;;;;;;;20.88;12.45;;;;;;;4.66;71.17;100963.91;30771540;28;96893;-69
2022/10/13 00:24:22;;;;;;;23.55;12.60;;;;;;;4.60;71.85;100961.72;30731380;28;97142;-69
2022/10/13 00:39:23;;;;;;;23.92;13.07;;;;;;;4.49;71.79;100943.19;30730494;28;97007;-69
2022/10/13 00:54:24;;;;;;;25.05;14.75;;;;;;;4.29;72.09;100950.78;30746876;28;96792;-67
2022/10/13 01:09:24;;;;;;;28.63;13.10;;;;;;;4.21;72.85;100939.91;30749549;28;97359;-69
2022/10/13 01:24:30;;;;;;;23.33;12.40;;;;;;;3.96;73.29;100933.75;30747157;28;112225;-66
2022/10/13 01:39:43;;;;;;;29.70;14.38;;;;;;;3.96;73.76;100922.38;30746421;28;96810;-69
2022/10/13 01:54:49;;;;;;;20.75;13.98;;;;;;;3.90;73.55;100905.22;30744667;28;97018;-69
2022/10/13 02:09:55;;;;;;;29.42;15.48;;;;;;;3.86;74.35;100886.13;30743243;28;96677;-67
2022/10/13 02:24:56;;;;;;;29.98;16.88;;;;;;;3.78;74.83;100877.09;30741654;28;97000;-64
2022/10/13 02:39:56;;;;;;;32.15;17.98;;;;;;;3.55;74.87;100877.78;30739661;28;111329;-66
2022/10/13 02:54:57;;;;;;;32.42;18.58;;;;;;;3.57;74.86;100877.66;30736415;28;121085;-66
2022/10/13 03:09:57;;;;;;;44.50;17.52;;;;;;;3.40;75.02;100870.91;30736232;28;97655;-62
2022/10/13 03:24:57;;;;;;;35.00;19.42;;;;;;;3.32;75.72;100876.75;30734297;28;104976;-67
2022/10/13 03:39:58;;;;;;;31.88;17.98;;;;;;;3.22;75.99;100873.03;30729926;28;96581;-62
2022/10/13 03:54:59;;;;;;;35.08;20.13;;;;;;;3.29;76.21;100866.41;30729385;28;97465;-67
2022/10/13 04:09:59;;;;;;;34.10;21.10;;;;;;;3.23;76.64;100858.94;30729088;28;113298;-70
2022/10/13 04:24:59;;;;;;;38.45;20.92;;;;;;;3.15;76.53;100856.00;30741646;28;109657;-60
2022/10/13 04:39:59;;;;;;;36.25;22.02;;;;;;;3.07;76.92;100845.16;30626146;28;107110;-62
2022/10/13 04:55:00;;;;;;;36.42;23.65;;;;;;;3.07;76.99;100850.41;30678922;28;115588;-61
2022/10/13 05:10:00;;;;;;;43.38;23.42;;;;;;;3.01;77.49;100839.34;30747356;28;97318;-68
2022/10/13 05:25:01;;;;;;;35.15;21.48;;;;;;;3.08;77.68;100836.31;30711874;28;97583;-66
2022/10/13 05:40:01;;;;;;;44.78;22.35;;;;;;;3.31;77.55;100838.19;30789387;28;111465;-71
2022/10/13 05:55:04;;;;;;;37.92;22.50;;;;;;;3.88;78.25;100828.00;30724858;28;97424;-63
2022/10/13 06:10:05;;;;;;;35.50;21.70;;;;;;;4.75;77.78;100828.59;30721067;28;97901;-68
2022/10/13 06:25:06;;;;;;;35.33;21.33;;;;;;;5.76;77.22;100834.84;30704859;28;98039;-63
2022/10/13 06:40:07;;;;;;;35.25;22.05;;;;;;;6.97;76.47;100809.09;30700536;28;97077;-63
2022/10/13 06:55:08;;;;;;;37.15;23.65;;;;;;;8.11;74.10;100811.50;30701579;28;97483;-65
2022/10/13 07:10:08;;;;;;;38.97;24.35;;;;;;;9.55;72.94;100811.47;30697830;28;97185;-67
2022/10/13 07:25:08;;;;;;;34.42;22.25;;;;;;;10.72;70.97;100791.13;30695845;28;100802;-64
2022/10/13 07:40:09;;;;;;;38.67;22.00;;;;;;;12.04;68.32;100789.81;30688197;28;109460;-65
2022/10/13 07:55:10;;;;;;;36.20;23.65;;;;;;;13.50;65.47;100780.88;30694410;28;98158;-68
2022/10/13 08:10:11;;;;;;;29.27;18.63;;;;;;;15.35;61.80;100771.75;30727805;28;96836;-65
2022/10/13 08:25:11;;;;;;;29.43;18.63;;;;;;;17.01;56.71;100761.91;30726541;28;97411;-66
2022/10/13 08:40:16;;;;;;;25.00;16.05;;;;;;;26.89;41.00;100766.84;30726315;28;97230;-64
2022/10/13 08:55:26;;;;;;;24.97;14.27;;;;;;;32.44;28.19;100758.19;30725489;28;96820;-63
2022/10/13 09:10:26;;;;;;;21.03;12.90;;;;;;;35.75;20.77;100752.38;30737329;28;97486;-69
2022/10/13 09:25:27;;;;;;;19.58;12.18;;;;;;;39.59;17.02;100734.66;30799243;28;113121;-67
2022/10/13 09:40:31;;;;;;;18.60;9.20;;;;;;;41.80;14.07;100732.31;30863521;28;97395;-64
2022/10/13 09:55:34;;;;;;;16.33;9.30;;;;;;;-147.20;100.00;63046.97;31038858;28;97250;-64
2022/10/13 10:10:38;;;;;;;13.97;8.40;;;;;;;-147.20;100.00;63046.97;31434047;28;20045;-66
2022/10/13 10:25:46;;;;;;;15.20;8.80;;;;;;;-147.20;100.00;63046.97;31434724;28;20033;-67
2022/10/13 10:40:56;;;;;;;13.77;8.17;;;;;;;-147.20;100.00;63046.97;31378299;28;20339;-67
2022/10/13 10:56:04;;;;;;;13.13;7.53;;;;;;;-147.20;100.00;63046.97;31430420;28;20619;-65
2022/10/13 11:11:27;;;;;;;11.37;5.90;;;;;;;-147.20;100.00;63046.97;31430288;28;20079;-66
2022/10/13 11:26:40;;;;;;;12.83;6.53;;;;;;;-147.20;100.00;63046.97;31425220;28;20037;-64
2022/10/13 11:42:27;;;;;;;10.40;5.50;;;;;;;-147.20;100.00;63046.97;31425839;28;20033;-66
2022/10/13 11:57:30;;;;;;;9.63;5.03;;;;;;;-147.20;100.00;63046.97;31369776;28;20041;-69
2022/10/13 12:12:30;;;;;;;7.17;4.30;;;;;;;-147.20;100.00;63046.97;31424933;28;20116;-81
2022/10/13 12:27:44;;;;;;;7.53;3.67;;;;;;;-147.20;100.00;63046.97;31421871;28;20112;-67
2022/10/13 12:42:45;;;;;;;8.17;3.80;;;;;;;-147.20;100.00;63046.97;31428766;28;20105;-70
2022/10/13 12:57:48;;;;;;;9.97;4.07;;;;;;;-147.20;100.00;63046.97;31439451;28;20084;-67
2022/10/13 13:12:49;;;;;;;8.93;4.20;;;;;;;-147.20;100.00;63046.97;31433151;28;20087;-67
2022/10/13 13:27:50;;;;;;;8.10;4.87;;;;;;;-147.20;100.00;63046.97;31436612;28;20263;-70
2022/10/13 13:42:51;;;;;;;9.80;4.07;;;;;;;-147.20;100.00;63046.97;31429074;28;20741;-67
2022/10/13 13:57:51;;;;;;;9.13;4.28;;;;;;;-147.20;100.00;63046.97;31429316;28;20264;-72
2022/10/13 14:12:52;;;;;;;9.43;4.82;;;;;;;-147.20;100.00;63046.97;31433897;28;20041;-66
2022/10/13 14:27:52;;;;;;;7.82;4.00;;;;;;;-147.20;100.00;63046.97;31431849;28;20030;-64
2022/10/13 14:42:53;;;;;;;9.05;4.32;;;;;;;-147.20;100.00;63046.97;31311983;28;20034;-66
2022/10/13 14:57:53;;;;;;;12.85;4.22;;;;;;;-147.20;100.00;63046.97;31369477;28;20052;-62
2022/10/13 15:12:53;;;;;;;11.80;5.28;;;;;;;-147.20;100.00;63046.97;31414230;28;20040;-63
2022/10/13 15:27:53;;;;;;;15.10;5.93;;;;;;;-147.20;100.00;63046.97;31385092;28;20087;-63
2022/10/13 15:42:54;;;;;;;14.87;7.37;;;;;;;-147.20;100.00;63046.97;31367908;28;20532;-63
2022/10/13 15:57:54;;;;;;;19.20;7.95;;;;;;;-147.20;100.00;63046.97;31328536;28;26332;-62
2022/10/13 16:12:54;;;;;;;14.27;7.68;;;;;;;-147.20;100.00;63046.97;31242935;28;20043;-64
2022/10/13 16:27:55;;;;;;;15.73;8.73;;;;;;;-147.20;100.00;63046.97;31379196;28;21424;-65
2022/10/13 16:42:55;;;;;;;20.63;10.90;;;;;;;-147.20;100.00;63046.97;31435739;28;20040;-64
2022/10/13 16:57:56;;;;;;;29.80;13.13;;;;;;;-147.20;100.00;63046.97;31370623;28;24449;-64
2022/10/13 17:12:56;;;;;;;26.33;14.02;;;;;;;-147.20;100.00;63046.97;31419404;28;20045;-64
2022/10/13 17:27:56;;;;;;;46.83;16.67;;;;;;;-147.20;100.00;63046.97;31435452;28;20494;-73
2022/10/13 17:42:57;;;;;;;31.65;13.88;;;;;;;-147.20;100.00;63046.97;31411575;28;26979;-64
2022/10/13 17:57:57;;;;;;;42.35;23.90;;;;;;;-147.20;100.00;63046.97;31321782;28;20050;-68
2022/10/13 18:12:57;;;;;;;36.00;19.52;;;;;;;-147.20;100.00;63046.97;31306335;28;20666;-64
2022/10/13 18:27:58;;;;;;;35.17;18.27;;;;;;;-147.20;100.00;63046.97;31306729;28;20045;-69
2022/10/13 18:42:58;;;;;;;33.30;17.33;;;;;;;-147.20;100.00;63046.97;31307839;28;24839;-64
2022/10/13 18:57:58;;;;;;;39.22;19.67;;;;;;;-147.20;100.00;63046.97;31300431;28;20053;-66
2022/10/13 19:12:58;;;;;;;38.40;19.20;;;;;;;-147.20;100.00;63046.97;31297804;28;20069;-67
2022/10/13 19:27:59;;;;;;;39.33;20.55;;;;;;;-147.20;100.00;63046.97;31296260;28;23442;-67
2022/10/13 19:42:59;;;;;;;34.65;19.27;;;;;;;-147.20;100.00;63046.97;31295133;28;20471;-64
2022/10/13 19:57:59;;;;;;;37.15;19.98;;;;;;;-147.20;100.00;63046.97;31291979;28;20149;-66
2022/10/13 20:13:01;;;;;;;36.58;19.85;;;;;;;-147.20;100.00;63046.97;31291132;28;20513;-63
2022/10/13 20:28:01;;;;;;;40.50;20.30;;;;;;;-147.20;100.00;63046.97;31291493;28;20026;-66
2022/10/13 20:43:02;;;;;;;37.97;20.83;;;;;;;-147.20;100.00;63046.97;31290558;28;20026;-62
2022/10/13 20:58:02;;;;;;;35.95;18.77;;;;;;;-147.20;100.00;63046.97;31287678;28;20042;-66
2022/10/13 21:13:02;;;;;;;38.53;21.00;;;;;;;-147.20;100.00;63046.97;31342509;28;20095;-63
2022/10/13 21:28:03;;;;;;;35.03;21.50;;;;;;;-147.20;100.00;63046.97;31430875;28;21841;-65
2022/10/13 21:43:03;;;;;;;36.55;21.60;;;;;;;-147.20;100.00;63046.97;31439297;28;20030;-66
2022/10/13 21:58:04;;;;;;;35.92;21.77;;;;;;;-147.20;100.00;63046.97;31438137;28;26758;-64
2022/10/13 22:13:04;;;;;;;36.40;22.25;;;;;;;-147.20;100.00;63046.97;31438126;28;20473;-63
2022/10/13 22:28:04;;;;;;;42.28;21.33;;;;;;;-147.20;100.00;63046.97;31436152;28;21197;-63
2022/10/13 22:43:04;;;;;;;41.97;23.10;;;;;;;-147.20;100.00;63046.97;31435386;28;20029;-63
2022/10/13 22:58:05;;;;;;;41.20;22.40;;;;;;;-147.20;100.00;63046.97;31433513;28;20049;-62
2022/10/13 23:13:05;;;;;;;39.85;22.27;;;;;;;-147.20;100.00;63046.97;31433023;28;20032;-65
2022/10/13 23:28:06;;;;;;;44.17;23.95;;;;;;;-147.20;100.00;63046.97;31431397;28;20056;-62
2022/10/13 23:43:06;;;;;;;75.82;38.70;;;;;;;-147.20;100.00;63046.97;31429944;28;25894;-63
2022/10/13 23:58:06;;;;;;;70.65;34.53;;;;;;;-147.20;100.00;63046.97;31428997;28;20402;-62
